createdAt,value
2022-12-16T00:01:39.263Z,31.88
2022-12-16T00:04:41.516Z,26.35
2022-12-16T00:07:43.287Z,24.13
2022-12-16T00:10:54.988Z,23.73
2022-12-16T00:13:56.903Z,24.00
2022-12-16T00:16:58.826Z,24.60
2022-12-16T00:20:02.791Z,23.85
2022-12-16T00:23:04.805Z,25.35
2022-12-16T00:26:07.008Z,24.65
2022-12-16T00:29:11.158Z,23.87
2022-12-16T00:32:13.236Z,23.30
2022-12-16T00:35:15.020Z,16.70
2022-12-16T00:38:16.836Z,23.58
2022-12-16T00:41:19.139Z,23.25
2022-12-16T00:44:21.363Z,24.67
2022-12-16T00:47:23.177Z,24.35
2022-12-16T00:50:25.296Z,24.20
2022-12-16T00:53:27.484Z,25.20
2022-12-16T00:56:29.186Z,24.35
2022-12-16T00:59:30.954Z,24.25
2022-12-16T01:02:32.968Z,25.42
2022-12-16T01:05:37.877Z,26.03
2022-12-16T01:08:40.050Z,25.80
2022-12-16T01:11:41.819Z,25.53
2022-12-16T01:14:43.839Z,23.92
2022-12-16T01:17:46.058Z,23.98
2022-12-16T01:20:47.817Z,25.38
2022-12-16T01:23:49.809Z,24.35
2022-12-16T01:26:52.161Z,26.35
2022-12-16T01:29:54.021Z,25.33
2022-12-16T01:32:57.241Z,25.05
2022-12-16T01:36:05.122Z,25.40
2022-12-16T01:39:06.837Z,23.27
2022-12-16T01:42:20.877Z,26.42
2022-12-16T01:45:25.575Z,26.27
2022-12-16T01:49:03.884Z,24.73
2022-12-16T01:52:10.587Z,24.25
2022-12-16T01:55:18.475Z,25.65
2022-12-16T01:58:25.883Z,25.00
2022-12-16T02:01:27.993Z,24.90
2022-12-16T02:04:29.829Z,25.20
2022-12-16T02:07:31.878Z,24.63
2022-12-16T02:10:44.880Z,18.90
2022-12-16T02:14:01.616Z,24.15
2022-12-16T02:17:12.599Z,25.25
2022-12-16T02:20:29.542Z,25.85
2022-12-16T02:23:54.435Z,24.27
2022-12-16T02:27:05.620Z,26.23
2022-12-16T02:30:07.692Z,25.25
2022-12-16T02:33:36.598Z,27.00
2022-12-16T02:36:38.254Z,25.67
2022-12-16T02:39:48.768Z,25.10
2022-12-16T02:43:12.853Z,25.73
2022-12-16T02:46:15.728Z,24.80
2022-12-16T02:49:17.407Z,27.05
2022-12-16T02:52:22.906Z,23.65
2022-12-16T02:55:40.789Z,24.52
2022-12-16T02:59:03.951Z,25.50
2022-12-16T03:02:24.919Z,24.98
2022-12-16T03:05:34.036Z,25.80
2022-12-16T03:08:40.920Z,25.73
2022-12-16T03:11:45.561Z,24.80
2022-12-16T03:14:50.874Z,25.00
2022-12-16T03:17:54.347Z,24.65
2022-12-16T03:21:01.879Z,24.42
2022-12-16T03:24:07.490Z,23.98
2022-12-16T03:27:21.857Z,25.35
2022-12-16T03:30:29.905Z,24.98
2022-12-16T03:33:47.313Z,24.05
2022-12-16T03:36:54.071Z,25.40
2022-12-16T03:39:58.195Z,24.10
2022-12-16T03:43:01.801Z,25.33
2022-12-16T03:46:08.119Z,24.45
2022-12-16T03:49:09.953Z,23.67
2022-12-16T03:52:12.021Z,24.13
2022-12-16T03:55:13.943Z,23.70
2022-12-16T03:58:15.641Z,23.05
2022-12-16T04:01:17.508Z,24.20
2022-12-16T04:04:19.490Z,24.02
2022-12-16T04:07:21.423Z,24.08
2022-12-16T04:10:43.102Z,23.92
2022-12-16T04:14:03.362Z,23.17
2022-12-16T04:17:25.086Z,25.17
2022-12-16T04:20:50.888Z,23.63
2022-12-16T04:24:14.541Z,25.25
2022-12-16T04:27:25.478Z,23.58
2022-12-16T04:30:29.063Z,23.38
2022-12-16T04:33:49.849Z,23.95
2022-12-16T04:37:11.957Z,22.52
2022-12-16T04:40:32.510Z,23.52
2022-12-16T04:43:53.897Z,24.05
2022-12-16T04:47:14.392Z,23.73
2022-12-16T04:50:34.704Z,23.08
2022-12-16T04:53:54.971Z,23.85
2022-12-16T04:57:15.528Z,22.98
2022-12-16T05:00:36.303Z,23.15
2022-12-16T05:03:56.918Z,23.10
2022-12-16T05:07:17.594Z,22.75
2022-12-16T05:10:37.712Z,23.20
2022-12-16T05:13:58.231Z,23.25
2022-12-16T05:17:18.370Z,24.52
2022-12-16T05:20:38.966Z,23.75
2022-12-16T05:23:59.374Z,23.98
2022-12-16T05:27:19.638Z,23.88
2022-12-16T05:30:40.115Z,23.83
2022-12-16T05:34:00.679Z,24.05
2022-12-16T05:37:20.859Z,25.17
2022-12-16T05:40:41.572Z,23.30
2022-12-16T05:44:02.745Z,25.45
2022-12-16T05:47:23.115Z,25.33
2022-12-16T05:50:43.509Z,25.35
2022-12-16T05:54:03.868Z,24.52
2022-12-16T05:57:24.275Z,24.50
2022-12-16T06:00:44.915Z,25.90
2022-12-16T06:04:05.617Z,23.77
2022-12-16T06:07:25.892Z,23.52
2022-12-16T06:10:46.025Z,23.15
2022-12-16T06:14:06.398Z,23.05
2022-12-16T06:17:26.733Z,22.30
2022-12-16T06:20:47.091Z,24.63
2022-12-16T06:24:07.471Z,23.83
2022-12-16T06:27:28.158Z,23.42
2022-12-16T06:30:48.401Z,23.17
2022-12-16T06:34:08.620Z,23.00
2022-12-16T06:37:29.361Z,23.70
2022-12-16T06:40:49.958Z,23.60
2022-12-16T06:44:11.719Z,23.23
2022-12-16T06:47:32.173Z,23.25
2022-12-16T06:50:55.606Z,24.38
2022-12-16T06:54:16.485Z,20.92
2022-12-16T06:57:36.666Z,21.13
2022-12-16T07:00:57.256Z,21.35
2022-12-16T07:04:17.732Z,21.55
2022-12-16T07:07:37.836Z,22.90
2022-12-16T07:11:09.213Z,23.77
2022-12-16T07:14:35.979Z,23.38
2022-12-16T07:17:58.689Z,21.08
2022-12-16T07:21:18.811Z,23.83
2022-12-16T07:24:39.477Z,22.83
2022-12-16T07:28:04.501Z,22.13
2022-12-16T07:31:24.801Z,22.63
2022-12-16T07:34:49.959Z,21.80
2022-12-16T07:38:30.797Z,23.13
2022-12-16T07:41:51.042Z,24.42
2022-12-16T07:45:12.451Z,23.50
2022-12-16T07:48:32.941Z,24.70
2022-12-16T07:51:53.392Z,24.70
2022-12-16T07:55:16.442Z,26.42
2022-12-16T07:58:36.828Z,26.55
2022-12-16T08:01:57.272Z,25.38
2022-12-16T08:05:17.962Z,25.25
2022-12-16T08:08:38.465Z,26.98
2022-12-16T08:11:58.694Z,25.83
2022-12-16T08:15:19.464Z,26.85
2022-12-16T08:18:39.683Z,27.08
2022-12-16T08:22:00.185Z,27.42
2022-12-16T08:25:20.316Z,27.92
2022-12-16T08:28:42.599Z,26.25
2022-12-16T08:32:03.118Z,27.30
2022-12-16T08:35:23.953Z,26.92
2022-12-16T08:38:44.433Z,27.85
2022-12-16T08:42:04.691Z,27.88
2022-12-16T08:45:25.330Z,28.17
2022-12-16T08:48:46.031Z,29.48
2022-12-16T08:52:06.535Z,30.13
2022-12-16T08:55:29.685Z,29.13
2022-12-16T09:02:18.357Z,26.88
2022-12-16T09:05:39.298Z,29.55
2022-12-16T09:08:59.552Z,26.60
2022-12-16T09:12:20.278Z,28.20
2022-12-16T09:15:40.530Z,30.70
2022-12-16T09:19:01.000Z,29.83
2022-12-16T09:22:21.439Z,30.92
2022-12-16T09:25:42.092Z,31.17
2022-12-16T09:29:02.757Z,32.88
2022-12-16T09:32:23.087Z,33.03
2022-12-16T09:35:43.578Z,32.75
2022-12-16T09:39:03.961Z,33.28
2022-12-16T09:42:50.709Z,36.10
2022-12-16T09:46:34.406Z,37.83
2022-12-16T09:50:00.340Z,37.30
2022-12-16T09:53:24.172Z,37.25
2022-12-16T09:56:55.222Z,38.85
2022-12-16T10:00:22.888Z,40.55
2022-12-16T10:03:52.534Z,38.78
2022-12-16T10:07:18.177Z,42.45
2022-12-16T10:10:47.396Z,44.80
2022-12-16T10:14:20.530Z,44.80
2022-12-16T10:17:43.926Z,46.75
2022-12-16T10:21:09.557Z,53.75
2022-12-16T10:25:05.547Z,45.45
2022-12-16T10:28:34.499Z,43.10
2022-12-16T10:31:55.807Z,43.90
2022-12-16T10:35:16.118Z,41.58
2022-12-16T10:39:03.420Z,42.65
2022-12-16T10:42:25.568Z,43.88
2022-12-16T10:45:59.733Z,45.25
2022-12-16T10:49:20.079Z,44.53
2022-12-16T10:52:40.611Z,45.10
2022-12-16T10:56:40.215Z,43.97
2022-12-16T11:00:01.088Z,44.95
2022-12-16T11:03:41.696Z,44.72
2022-12-16T11:07:02.462Z,41.70
2022-12-16T11:10:56.034Z,45.28
2022-12-16T11:14:40.080Z,44.55
2022-12-16T11:18:21.086Z,44.65
2022-12-16T11:21:41.611Z,45.15
2022-12-16T11:25:01.960Z,45.03
2022-12-16T11:28:36.281Z,45.55
2022-12-16T11:32:01.136Z,45.03
2022-12-16T11:35:24.429Z,47.38
2022-12-16T11:38:49.998Z,45.40
2022-12-16T11:42:13.631Z,46.55
2022-12-16T11:49:25.323Z,45.63
2022-12-16T11:52:46.441Z,46.42
2022-12-16T11:56:16.097Z,47.63
2022-12-16T12:00:00.570Z,44.83
2022-12-16T12:03:43.370Z,43.65
2022-12-16T12:07:25.223Z,44.90
2022-12-16T12:11:03.713Z,44.33
2022-12-16T12:14:36.091Z,46.72
2022-12-16T12:18:11.644Z,46.50
2022-12-16T12:21:41.931Z,46.33
2022-12-16T12:25:20.116Z,47.45
2022-12-16T12:28:46.746Z,47.17
2022-12-16T12:32:16.269Z,49.63
2022-12-16T12:35:59.053Z,49.05
2022-12-16T12:39:39.339Z,48.92
2022-12-16T12:43:07.539Z,57.05
2022-12-16T12:46:33.819Z,52.70
2022-12-16T12:50:01.092Z,50.30
2022-12-16T12:54:10.679Z,49.63
2022-12-16T12:57:34.644Z,50.80
2022-12-16T13:04:41.229Z,49.38
2022-12-16T13:08:01.616Z,49.40
2022-12-16T13:11:35.114Z,48.70
2022-12-16T13:14:56.014Z,48.47
2022-12-16T13:18:22.560Z,52.78
2022-12-16T13:21:54.735Z,50.47
2022-12-16T13:25:24.099Z,47.85
2022-12-16T13:28:50.541Z,43.13
2022-12-16T13:32:23.988Z,39.25
2022-12-16T13:35:44.390Z,39.60
2022-12-16T13:39:13.855Z,41.65
2022-12-16T13:42:59.043Z,40.50
2022-12-16T13:46:19.706Z,38.30
2022-12-16T13:49:54.733Z,37.45
2022-12-16T13:53:19.362Z,36.15
2022-12-16T13:56:47.678Z,34.42
2022-12-16T14:00:09.147Z,41.60
2022-12-16T14:03:38.601Z,35.65
2022-12-16T14:06:59.394Z,35.80
2022-12-16T14:10:20.106Z,34.50
2022-12-16T14:13:49.695Z,36.03
2022-12-16T14:17:16.364Z,37.60
2022-12-16T14:20:50.534Z,34.72
2022-12-16T14:24:25.621Z,37.85
2022-12-16T14:27:46.163Z,36.05
2022-12-16T14:31:06.710Z,37.42
2022-12-16T14:34:41.138Z,36.38
2022-12-16T14:38:01.636Z,36.72
2022-12-16T14:41:22.014Z,38.60
2022-12-16T14:44:44.035Z,36.72
2022-12-16T14:48:04.219Z,36.80
2022-12-16T14:52:03.510Z,38.03
2022-12-16T14:55:48.945Z,36.47
2022-12-16T14:59:26.199Z,34.78
2022-12-16T15:02:53.371Z,34.08
2022-12-16T15:06:14.873Z,34.88
2022-12-16T15:09:47.808Z,36.75
2022-12-16T15:13:08.830Z,36.43
2022-12-16T15:16:38.917Z,37.67
2022-12-16T15:20:04.237Z,36.55
2022-12-16T15:23:53.985Z,38.70
2022-12-16T15:27:40.575Z,37.72
2022-12-16T15:31:07.457Z,36.38
2022-12-16T15:34:47.419Z,35.13
2022-12-16T15:38:07.945Z,34.67
2022-12-16T15:41:40.302Z,34.28
2022-12-16T15:45:07.658Z,34.95
2022-12-16T15:48:35.091Z,36.50
2022-12-16T15:52:06.877Z,35.30
2022-12-16T15:55:51.385Z,37.30
2022-12-16T15:59:38.917Z,36.42
2022-12-16T16:03:06.403Z,37.40
2022-12-16T16:06:47.273Z,36.13
2022-12-16T16:10:07.589Z,34.90
2022-12-16T16:13:28.719Z,38.47
2022-12-16T16:16:49.434Z,40.63
2022-12-16T16:20:10.127Z,36.60
2022-12-16T16:23:30.870Z,41.97
2022-12-16T16:26:51.321Z,39.40
2022-12-16T16:30:11.627Z,40.08
2022-12-16T16:33:32.857Z,39.13
2022-12-16T16:36:53.535Z,37.67
2022-12-16T16:40:13.814Z,37.75
2022-12-16T16:43:34.349Z,35.05
2022-12-16T16:46:59.590Z,34.28
2022-12-16T16:50:20.530Z,32.90
2022-12-16T16:53:40.825Z,32.50
2022-12-16T16:57:01.201Z,33.58
2022-12-16T17:00:22.241Z,35.40
2022-12-16T17:03:43.197Z,33.90
2022-12-16T17:07:04.374Z,34.13
2022-12-16T17:10:25.563Z,34.33
2022-12-16T17:13:46.062Z,33.13
2022-12-16T17:17:06.459Z,33.05
2022-12-16T17:20:32.719Z,32.50
2022-12-16T17:23:53.198Z,33.25
2022-12-16T17:27:15.456Z,40.15
2022-12-16T17:30:43.514Z,34.90
2022-12-16T17:34:07.140Z,32.95
2022-12-16T17:37:27.707Z,32.65
2022-12-16T17:40:48.148Z,32.60
2022-12-16T17:44:11.386Z,32.25
2022-12-16T17:47:32.650Z,30.00
2022-12-16T17:50:53.473Z,31.05
2022-12-16T17:54:21.609Z,34.80
2022-12-16T17:57:44.453Z,33.97
2022-12-16T18:01:04.868Z,33.15
2022-12-16T18:04:25.840Z,32.72
2022-12-16T18:07:46.787Z,31.80
2022-12-16T18:11:12.303Z,33.08
2022-12-16T18:14:32.793Z,33.95
2022-12-16T18:17:53.011Z,34.28
2022-12-16T18:21:26.639Z,33.65
2022-12-16T18:24:48.711Z,34.78
2022-12-16T18:28:15.625Z,34.95
2022-12-16T18:31:39.370Z,32.88
2022-12-16T18:34:59.954Z,34.47
2022-12-16T18:38:20.507Z,31.20
2022-12-16T18:41:49.756Z,31.27
2022-12-16T18:45:10.193Z,32.78
2022-12-16T18:48:30.393Z,32.10
2022-12-16T18:51:50.617Z,37.05
2022-12-16T18:55:11.100Z,34.60
2022-12-16T19:02:19.669Z,33.78
2022-12-16T19:05:42.838Z,31.60
2022-12-16T19:09:03.189Z,25.13
2022-12-16T19:12:24.095Z,32.47
2022-12-16T19:15:44.605Z,33.25
2022-12-16T19:19:05.233Z,33.83
2022-12-16T19:22:25.811Z,34.25
2022-12-16T19:25:46.130Z,32.65
2022-12-16T19:29:06.731Z,34.25
2022-12-16T19:32:27.338Z,32.55
2022-12-16T19:35:47.959Z,32.85
2022-12-16T19:39:08.176Z,33.60
2022-12-16T19:42:32.582Z,34.55
2022-12-16T19:49:16.994Z,32.97
2022-12-16T19:52:37.497Z,33.97
2022-12-16T19:55:57.873Z,33.42
2022-12-16T19:59:18.627Z,35.30
2022-12-16T20:02:39.559Z,35.00
2022-12-16T20:06:00.036Z,35.92
2022-12-16T20:09:20.973Z,36.08
2022-12-16T20:12:41.228Z,35.80
2022-12-16T20:16:04.684Z,36.00
2022-12-16T20:19:24.898Z,34.80
2022-12-16T20:22:45.118Z,36.15
2022-12-16T20:26:19.534Z,34.67
2022-12-16T20:29:39.894Z,36.50
2022-12-16T20:33:00.697Z,34.95
2022-12-16T20:36:23.217Z,34.42
2022-12-16T20:43:23.902Z,36.22
2022-12-16T20:46:46.480Z,36.00
2022-12-16T20:50:06.748Z,37.03
2022-12-16T20:53:27.043Z,35.75
2022-12-16T20:56:47.954Z,35.83
2022-12-16T21:00:08.434Z,37.95
2022-12-16T21:03:29.932Z,36.72
2022-12-16T21:06:50.157Z,36.33
2022-12-16T21:10:10.526Z,37.75
2022-12-16T21:13:33.587Z,40.25
2022-12-16T21:16:54.006Z,40.58
2022-12-16T21:20:16.632Z,38.85
2022-12-16T21:23:37.644Z,36.00
2022-12-16T21:26:58.556Z,35.60
2022-12-16T21:30:18.900Z,35.60
2022-12-16T21:33:39.701Z,34.42
2022-12-16T21:37:00.391Z,34.78
2022-12-16T21:40:21.095Z,36.15
2022-12-16T21:43:43.451Z,35.90
2022-12-16T21:47:10.142Z,37.00
2022-12-16T21:50:30.325Z,36.13
2022-12-16T21:53:53.542Z,35.80
2022-12-16T21:57:14.266Z,36.38
2022-12-16T22:00:42.365Z,34.53
2022-12-16T22:04:02.700Z,35.22
2022-12-16T22:07:25.284Z,36.75
2022-12-16T22:10:45.986Z,35.70
2022-12-16T22:14:06.219Z,35.47
2022-12-16T22:17:29.425Z,37.40
2022-12-16T22:20:50.099Z,34.47
2022-12-16T22:24:11.014Z,33.85
2022-12-16T22:27:31.171Z,35.38
2022-12-16T22:30:51.915Z,36.90
2022-12-16T22:34:12.784Z,36.58
2022-12-16T22:37:33.282Z,37.72
2022-12-16T22:40:54.194Z,35.55
2022-12-16T22:44:16.937Z,35.95
2022-12-16T22:47:37.312Z,34.88
2022-12-16T22:50:57.833Z,35.42
2022-12-16T22:54:20.095Z,36.10
2022-12-16T22:57:40.790Z,36.65
2022-12-16T23:01:01.265Z,37.45
2022-12-16T23:04:29.524Z,34.78
2022-12-16T23:07:49.768Z,37.58
2022-12-16T23:11:17.861Z,34.90
2022-12-16T23:14:42.793Z,35.15
2022-12-16T23:18:03.606Z,35.38
2022-12-16T23:21:32.418Z,35.45
2022-12-16T23:24:52.966Z,35.65
2022-12-16T23:28:14.501Z,34.47
2022-12-16T23:31:34.836Z,34.03
2022-12-16T23:34:55.328Z,33.08
2022-12-16T23:38:21.023Z,34.78
2022-12-16T23:41:41.607Z,33.58
2022-12-16T23:45:02.000Z,34.10
2022-12-16T23:48:28.159Z,35.20
2022-12-16T23:51:58.145Z,34.53
2022-12-16T23:55:18.709Z,33.70
2022-12-16T23:58:39.257Z,36.90
